NTJ weather

Manti-Ephraim Airport
Manti, Utah, United States

Public forecast

Using degrees Fahrenheit for public forecast. Weather courtesy of forecast.io.

Closest aviation weather report (METAR) to Manti-Ephraim Airport

Closest report is Delta Municipal Airport, 41.6 nm (77.0 km) W. Retrieved 2020/04/07 22:35 UTC (17 minutes ago):

KDTA 072235Z AUTO 20009KT 10SM CLR 18/M05 A3004 RMK AO1

Closest aviation forecast (TAF) to Manti-Ephraim Airport

Closest forecast is Provo Municipal Airport, 53.7 nm (99.4 km) N. Retrieved 2020/04/07 18:33 UTC (4 hours ago):

TAF KPVU 071731Z 0718/0818 23008KT P6SM SCT060 BKN120 FM080300 VRB04KT P6SM SKC